Time;durP1;ratioP1;P1;durP2;ratioP2;P2;SDS_P1;SDS_P2;PMS_P1;PMS_P2;Temp;Humidity;BMP_temperature;BMP_pressure;BME280_temperature;BME280_humidity;BME280_pressure;Samples;Min_cycle;Max_cycle;Signal;HPM_P1;HPM_P2
2023/12/30 00:00:47;;;;;;;;;;;17.80;45.50;;;;;;1530792;75;1601;-72
2023/12/30 00:02:49;;;;;;;;;;;17.80;45.50;;;;;;1552770;74;789;-73
2023/12/30 00:04:50;;;;;;;;;;;17.80;45.50;;;;;;1536920;76;1150;-73
2023/12/30 00:06:52;;;;;;;;;;;17.70;45.50;;;;;;1572263;74;797;-71
2023/12/30 00:08:54;;;;;;;;;;;17.70;45.40;;;;;;1559018;75;718;-71
2023/12/30 00:10:56;;;;;;;;;;;17.70;45.40;;;;;;1538125;75;749;-71
2023/12/30 00:12:58;;;;;;;;;;;17.80;45.40;;;;;;1524323;75;793;-71
2023/12/30 00:15:00;;;;;;;;;;;17.80;45.40;;;;;;1542400;75;1159;-71
2023/12/30 00:17:02;;;;;;;;;;;17.80;45.40;;;;;;1531068;76;788;-72
2023/12/30 00:19:04;;;;;;;;;;;17.70;45.50;;;;;;1537264;76;1960;-71
2023/12/30 00:21:06;;;;;;;;;;;17.80;45.40;;;;;;1542074;76;792;-72
2023/12/30 00:23:08;;;;;;;;;;;17.70;45.40;;;;;;1533515;76;815;-72
2023/12/30 00:25:10;;;;;;;;;;;17.70;45.40;;;;;;1545784;76;1238;-74
2023/12/30 00:27:12;;;;;;;;;;;17.80;45.50;;;;;;1566350;74;835;-69
2023/12/30 00:29:14;;;;;;;;;;;17.80;45.40;;;;;;1567290;74;779;-74
2023/12/30 00:31:23;;;;;;;;;;;17.80;45.40;;;;;;1553225;74;805;-71
2023/12/30 00:33:25;;;;;;;;;;;17.80;45.50;;;;;;1562010;74;498;-72
2023/12/30 00:35:27;;;;;;;;;;;17.80;45.40;;;;;;1563999;74;1208;-72
2023/12/30 00:37:29;;;;;;;;;;;17.80;45.50;;;;;;1561257;74;1413;-73
2023/12/30 00:39:31;;;;;;;;;;;17.80;45.50;;;;;;1558503;74;1943;-73
2023/12/30 00:41:32;;;;;;;;;;;17.70;45.40;;;;;;1559646;74;814;-72
2023/12/30 00:43:35;;;;;;;;;;;17.80;45.50;;;;;;1560196;74;767;-72
2023/12/30 00:45:37;;;;;;;;;;;17.80;45.40;;;;;;1566557;74;1149;-70
2023/12/30 00:47:39;;;;;;;;;;;17.80;45.50;;;;;;1532926;76;801;-70
2023/12/30 00:49:41;;;;;;;;;;;17.80;45.50;;;;;;1527904;76;788;-72
2023/12/30 00:51:43;;;;;;;;;;;17.70;45.50;;;;;;1527419;76;778;-70
2023/12/30 00:53:44;;;;;;;;;;;17.80;45.50;;;;;;1559583;74;760;-72
2023/12/30 00:55:47;;;;;;;;;;;17.70;45.50;;;;;;1564102;74;1138;-72
2023/12/30 00:57:49;;;;;;;;;;;17.80;45.40;;;;;;1570512;74;745;-72
2023/12/30 00:59:50;;;;;;;;;;;17.80;45.40;;;;;;1559662;74;1946;-73
2023/12/30 01:01:52;;;;;;;;;;;17.70;45.40;;;;;;1567080;74;779;-72
2023/12/30 01:03:54;;;;;;;;;;;17.80;45.50;;;;;;1561332;74;799;-71
2023/12/30 01:05:56;;;;;;;;;;;17.70;45.50;;;;;;1565670;74;1169;-72
2023/12/30 01:07:58;;;;;;;;;;;17.80;45.40;;;;;;1571903;74;767;-69
2023/12/30 01:10:01;;;;;;;;;;;17.80;45.40;;;;;;1567525;74;797;-73
2023/12/30 01:12:03;;;;;;;;;;;17.70;45.50;;;;;;1567176;74;776;-71
2023/12/30 01:14:05;;;;;;;;;;;17.80;45.50;;;;;;1563743;74;804;-70
2023/12/30 01:16:07;;;;;;;;;;;17.80;45.40;;;;;;1563177;74;1133;-71
2023/12/30 01:18:09;;;;;;;;;;;17.80;45.50;;;;;;1565854;74;1941;-71
2023/12/30 01:20:11;;;;;;;;;;;17.80;45.40;;;;;;1541348;75;776;-70
2023/12/30 01:22:13;;;;;;;;;;;17.80;45.40;;;;;;1563443;74;767;-71
2023/12/30 01:24:14;;;;;;;;;;;17.80;45.40;;;;;;1567418;74;765;-72
2023/12/30 01:26:16;;;;;;;;;;;17.70;45.50;;;;;;1566804;74;1183;-73
2023/12/30 01:28:18;;;;;;;;;;;17.80;45.50;;;;;;1567315;74;783;-72
2023/12/30 01:30:20;;;;;;;;;;;17.80;45.50;;;;;;1553137;75;767;-71
2023/12/30 01:32:22;;;;;;;;;;;17.80;45.40;;;;;;1569224;74;763;-72
2023/12/30 01:34:24;;;;;;;;;;;17.80;45.40;;;;;;1562471;74;1438;-72
2023/12/30 01:36:25;;;;;;;;;;;17.70;45.40;;;;;;1567471;74;1142;-71
2023/12/30 01:38:27;;;;;;;;;;;17.80;45.40;;;;;;1559555;74;1935;-71
2023/12/30 01:40:29;;;;;;;;;;;17.80;45.50;;;;;;1565197;74;766;-73
2023/12/30 01:42:31;;;;;;;;;;;17.80;45.40;;;;;;1563033;74;795;-72
2023/12/30 01:44:33;;;;;;;;;;;17.80;45.40;;;;;;1558703;74;1155;-72
2023/12/30 01:46:35;;;;;;;;;;;17.80;45.40;;;;;;1572238;74;756;-72
2023/12/30 01:48:37;;;;;;;;;;;17.80;45.40;;;;;;1561099;74;804;-71
2023/12/30 01:50:39;;;;;;;;;;;17.70;45.40;;;;;;1566460;74;665;-72
2023/12/30 01:52:41;;;;;;;;;;;17.80;45.40;;;;;;1562591;74;727;-72
2023/12/30 01:54:42;;;;;;;;;;;17.70;45.40;;;;;;1563638;74;1176;-72
2023/12/30 01:56:44;;;;;;;;;;;17.80;45.40;;;;;;1561429;74;761;-73
2023/12/30 01:58:46;;;;;;;;;;;17.70;45.40;;;;;;1564708;74;1931;-74
2023/12/30 02:00:48;;;;;;;;;;;17.80;45.40;;;;;;1563333;76;513;-72
2023/12/30 02:02:50;;;;;;;;;;;17.80;45.40;;;;;;1563172;74;769;-71
2023/12/30 02:04:52;;;;;;;;;;;17.80;45.50;;;;;;1560239;75;1176;-72
2023/12/30 02:06:54;;;;;;;;;;;17.80;45.50;;;;;;1562846;74;788;-71
2023/12/30 02:08:56;;;;;;;;;;;17.80;45.50;;;;;;1567203;74;748;-72
2023/12/30 02:10:58;;;;;;;;;;;17.70;45.40;;;;;;1560633;74;826;-69
2023/12/30 02:13:00;;;;;;;;;;;17.80;45.40;;;;;;1552571;74;789;-72
2023/12/30 02:15:11;;;;;;;;;;;17.80;45.40;;;;;;1565516;74;1179;-72
2023/12/30 02:17:13;;;;;;;;;;;17.70;45.40;;;;;;1538881;75;755;-71
2023/12/30 02:19:15;;;;;;;;;;;17.80;45.40;;;;;;1548075;74;1944;-72
2023/12/30 02:21:17;;;;;;;;;;;17.80;45.40;;;;;;1537709;76;646;-71
2023/12/30 02:23:19;;;;;;;;;;;17.80;45.30;;;;;;1526530;75;737;-72
2023/12/30 02:25:21;;;;;;;;;;;17.70;45.40;;;;;;1534609;75;1184;-72
2023/12/30 02:27:22;;;;;;;;;;;17.80;45.40;;;;;;1550863;75;690;-74
2023/12/30 02:29:24;;;;;;;;;;;17.80;45.30;;;;;;1554236;74;1438;-69
2023/12/30 02:31:26;;;;;;;;;;;17.80;45.30;;;;;;1584593;74;787;-69
2023/12/30 02:33:28;;;;;;;;;;;17.80;45.30;;;;;;1570357;74;798;-71
2023/12/30 02:35:30;;;;;;;;;;;17.80;45.30;;;;;;1562959;74;1177;-71
2023/12/30 02:37:32;;;;;;;;;;;17.80;45.30;;;;;;1558747;74;753;-71
2023/12/30 02:39:34;;;;;;;;;;;17.80;45.40;;;;;;1561028;74;1957;-73
2023/12/30 02:41:36;;;;;;;;;;;17.80;45.40;;;;;;1562566;75;790;-73
2023/12/30 02:43:39;;;;;;;;;;;17.80;45.30;;;;;;1564437;76;769;-72
2023/12/30 02:45:41;;;;;;;;;;;17.80;45.40;;;;;;1557982;75;1170;-72
2023/12/30 02:47:43;;;;;;;;;;;17.80;45.40;;;;;;1556213;75;805;-70
2023/12/30 02:49:45;;;;;;;;;;;17.80;45.40;;;;;;1559334;76;765;-73
2023/12/30 02:51:47;;;;;;;;;;;17.80;45.30;;;;;;1598994;73;783;-72
2023/12/30 02:53:49;;;;;;;;;;;17.80;45.30;;;;;;1594381;73;792;-73
2023/12/30 02:55:50;;;;;;;;;;;17.80;45.20;;;;;;1599820;73;1168;-72
2023/12/30 02:57:53;;;;;;;;;;;17.80;45.30;;;;;;1592698;73;773;-72
2023/12/30 02:59:54;;;;;;;;;;;17.80;45.30;;;;;;1597830;73;1924;-73
2023/12/30 03:01:56;;;;;;;;;;;17.80;45.30;;;;;;1594183;73;776;-68
2023/12/30 03:04:00;;;;;;;;;;;17.80;45.30;;;;;;1592918;73;793;-71
2023/12/30 03:06:02;;;;;;;;;;;17.80;45.30;;;;;;1589472;73;1149;-71
2023/12/30 03:08:03;;;;;;;;;;;17.80;45.30;;;;;;1604642;73;806;-72
2023/12/30 03:10:05;;;;;;;;;;;17.80;45.30;;;;;;1595701;73;780;-72
2023/12/30 03:12:08;;;;;;;;;;;17.80;45.40;;;;;;1598142;73;782;-72
2023/12/30 03:14:10;;;;;;;;;;;17.70;45.40;;;;;;1582694;73;702;-72
2023/12/30 03:16:18;;;;;;;;;;;17.80;45.30;;;;;;1590962;73;1191;-73
2023/12/30 03:18:16;;;;;;;;;;;17.80;45.30;;;;;;1591869;73;1541;-72
2023/12/30 03:20:18;;;;;;;;;;;17.80;45.40;;;;;;1593491;73;1952;-72
2023/12/30 03:22:19;;;;;;;;;;;17.80;45.30;;;;;;1588436;73;769;-71
2023/12/30 03:24:21;;;;;;;;;;;17.80;45.30;;;;;;1600123;73;738;-72
2023/12/30 03:26:23;;;;;;;;;;;17.80;45.40;;;;;;1591161;73;1471;-73
2023/12/30 03:28:26;;;;;;;;;;;17.80;45.30;;;;;;1594167;73;742;-72
2023/12/30 03:30:28;;;;;;;;;;;17.80;45.30;;;;;;1594742;73;788;-73
2023/12/30 03:32:30;;;;;;;;;;;17.70;45.30;;;;;;1595954;73;778;-69
2023/12/30 03:34:32;;;;;;;;;;;17.70;45.30;;;;;;1592909;73;734;-70
2023/12/30 03:36:34;;;;;;;;;;;17.80;45.30;;;;;;1596517;73;755;-70
2023/12/30 03:38:36;;;;;;;;;;;17.80;45.30;;;;;;1566251;74;1204;-74
2023/12/30 03:40:38;;;;;;;;;;;17.80;45.30;;;;;;1593704;73;1940;-70
2023/12/30 03:42:39;;;;;;;;;;;17.80;45.30;;;;;;1598571;73;657;-71
2023/12/30 03:44:41;;;;;;;;;;;17.70;45.30;;;;;;1595260;73;1183;-72
2023/12/30 03:46:43;;;;;;;;;;;17.80;45.30;;;;;;1587936;73;783;-70
2023/12/30 03:48:45;;;;;;;;;;;17.80;45.30;;;;;;1592085;73;776;-72
2023/12/30 03:50:47;;;;;;;;;;;17.80;45.30;;;;;;1599316;73;781;-72
2023/12/30 03:52:50;;;;;;;;;;;17.80;45.30;;;;;;1594665;73;782;-72
2023/12/30 03:54:53;;;;;;;;;;;17.80;45.30;;;;;;1596820;73;1229;-70
2023/12/30 03:56:55;;;;;;;;;;;17.80;45.30;;;;;;1589714;73;770;-73
2023/12/30 03:58:59;;;;;;;;;;;17.80;45.20;;;;;;1594187;73;751;-74
2023/12/30 04:01:00;;;;;;;;;;;17.70;45.30;;;;;;1593031;73;1633;-72
2023/12/30 04:03:02;;;;;;;;;;;17.80;45.30;;;;;;1601298;73;769;-72
2023/12/30 04:05:04;;;;;;;;;;;17.70;45.30;;;;;;1593436;73;1167;-71
2023/12/30 04:07:06;;;;;;;;;;;17.80;45.30;;;;;;1597354;73;740;-71
2023/12/30 04:09:08;;;;;;;;;;;17.70;45.30;;;;;;1593401;73;762;-69
2023/12/30 04:11:10;;;;;;;;;;;17.80;45.30;;;;;;1598796;73;788;-73
2023/12/30 04:13:12;;;;;;;;;;;17.80;45.30;;;;;;1581080;73;785;-71
2023/12/30 04:15:14;;;;;;;;;;;17.80;45.30;;;;;;1593048;73;1143;-68
2023/12/30 04:17:16;;;;;;;;;;;17.70;45.30;;;;;;1590585;73;1136;-72
2023/12/30 04:19:17;;;;;;;;;;;17.80;45.30;;;;;;1591187;73;1940;-72
2023/12/30 04:21:19;;;;;;;;;;;17.80;45.30;;;;;;1600757;73;747;-72
2023/12/30 04:23:21;;;;;;;;;;;17.80;45.40;;;;;;1594312;73;1590;-70
2023/12/30 04:25:23;;;;;;;;;;;17.80;45.30;;;;;;1597135;74;1171;-71
2023/12/30 04:27:25;;;;;;;;;;;17.80;45.30;;;;;;1599004;73;772;-72
2023/12/30 04:29:28;;;;;;;;;;;17.80;45.30;;;;;;1597576;73;796;-74
2023/12/30 04:31:30;;;;;;;;;;;17.80;45.30;;;;;;1585698;73;772;-69
2023/12/30 04:33:32;;;;;;;;;;;17.80;45.40;;;;;;1585949;73;765;-70
2023/12/30 04:35:34;;;;;;;;;;;17.80;45.30;;;;;;1590692;73;1223;-71
2023/12/30 04:37:36;;;;;;;;;;;17.70;45.40;;;;;;1583737;73;714;-73
2023/12/30 04:39:38;;;;;;;;;;;17.80;45.30;;;;;;1572542;74;1929;-72
2023/12/30 04:41:40;;;;;;;;;;;17.80;45.30;;;;;;1560844;74;812;-71
2023/12/30 04:43:42;;;;;;;;;;;17.80;45.30;;;;;;1559225;74;786;-70
2023/12/30 04:45:44;;;;;;;;;;;17.80;45.30;;;;;;1569773;74;1148;-72
2023/12/30 04:47:46;;;;;;;;;;;17.80;45.30;;;;;;1574982;74;777;-69
2023/12/30 04:49:48;;;;;;;;;;;17.80;45.30;;;;;;1561328;74;852;-72
2023/12/30 04:51:50;;;;;;;;;;;17.80;45.30;;;;;;1568908;74;768;-72
2023/12/30 04:53:52;;;;;;;;;;;17.80;45.30;;;;;;1561114;74;735;-71
2023/12/30 04:55:53;;;;;;;;;;;17.80;45.30;;;;;;1570594;74;1169;-71
2023/12/30 04:57:55;;;;;;;;;;;17.80;45.30;;;;;;1576967;74;658;-71
2023/12/30 04:59:57;;;;;;;;;;;17.80;45.30;;;;;;1568795;74;1930;-71
2023/12/30 05:01:59;;;;;;;;;;;17.80;45.30;;;;;;1568410;74;754;-72
2023/12/30 05:04:02;;;;;;;;;;;17.70;45.30;;;;;;1553902;74;812;-72
2023/12/30 05:06:04;;;;;;;;;;;17.80;45.30;;;;;;1566857;74;1181;-72
2023/12/30 05:08:07;;;;;;;;;;;17.80;45.30;;;;;;1597093;73;791;-74
2023/12/30 05:10:09;;;;;;;;;;;17.80;45.30;;;;;;1588299;73;724;-72
2023/12/30 05:12:11;;;;;;;;;;;17.80;45.20;;;;;;1596725;73;769;-72
2023/12/30 05:14:14;;;;;;;;;;;17.80;45.30;;;;;;1595600;73;764;-72
2023/12/30 05:16:16;;;;;;;;;;;17.70;45.30;;;;;;1591778;73;1153;-71
2023/12/30 05:18:18;;;;;;;;;;;17.80;45.30;;;;;;1587501;73;1411;-72
2023/12/30 05:20:19;;;;;;;;;;;17.80;45.30;;;;;;1592570;73;1939;-70
2023/12/30 05:22:21;;;;;;;;;;;17.80;45.30;;;;;;1593669;73;766;-72
2023/12/30 05:24:23;;;;;;;;;;;17.80;45.30;;;;;;1594027;73;652;-72
2023/12/30 05:26:25;;;;;;;;;;;17.80;45.30;;;;;;1594512;73;1165;-72
2023/12/30 05:28:27;;;;;;;;;;;17.80;45.30;;;;;;1587442;73;776;-74
2023/12/30 05:30:29;;;;;;;;;;;17.70;45.30;;;;;;1594601;73;762;-71
2023/12/30 05:32:31;;;;;;;;;;;17.80;45.30;;;;;;1598674;73;754;-72
2023/12/30 05:34:33;;;;;;;;;;;17.80;45.30;;;;;;1595860;73;766;-72
2023/12/30 05:36:37;;;;;;;;;;;17.80;45.30;;;;;;1597237;73;768;-71
2023/12/30 05:38:39;;;;;;;;;;;17.80;45.30;;;;;;1599973;73;807;-73
2023/12/30 05:40:42;;;;;;;;;;;17.80;45.30;;;;;;1590371;73;1929;-71
2023/12/30 05:42:44;;;;;;;;;;;17.80;45.30;;;;;;1601548;73;771;-71
2023/12/30 05:44:47;;;;;;;;;;;17.70;45.30;;;;;;1596455;73;1215;-72
2023/12/30 05:46:49;;;;;;;;;;;17.80;45.30;;;;;;1596942;73;761;-71
2023/12/30 05:48:51;;;;;;;;;;;17.80;45.30;;;;;;1575850;74;1252;-71
2023/12/30 05:50:53;;;;;;;;;;;17.80;45.20;;;;;;1595549;73;765;-72
2023/12/30 05:52:55;;;;;;;;;;;17.80;45.30;;;;;;1589935;73;764;-72
2023/12/30 05:54:57;;;;;;;;;;;17.80;45.30;;;;;;1599831;73;1107;-70
2023/12/30 05:57:00;;;;;;;;;;;17.80;45.30;;;;;;1586693;73;800;-70
2023/12/30 05:59:02;;;;;;;;;;;17.70;45.30;;;;;;1581835;73;717;-72
2023/12/30 06:01:04;;;;;;;;;;;17.70;45.30;;;;;;1592939;73;1932;-72
2023/12/30 06:03:06;;;;;;;;;;;17.80;45.20;;;;;;1605757;73;539;-72
2023/12/30 06:05:08;;;;;;;;;;;17.80;45.30;;;;;;1582605;73;1197;-72
2023/12/30 06:07:10;;;;;;;;;;;17.80;45.20;;;;;;1609611;73;763;-71
2023/12/30 06:09:12;;;;;;;;;;;17.80;45.20;;;;;;1594969;73;760;-71
2023/12/30 06:11:14;;;;;;;;;;;17.80;45.30;;;;;;1598272;73;782;-72
2023/12/30 06:13:16;;;;;;;;;;;17.80;45.30;;;;;;1591996;73;817;-71
2023/12/30 06:15:19;;;;;;;;;;;17.80;45.30;;;;;;1593535;73;1407;-71
2023/12/30 06:17:21;;;;;;;;;;;17.70;45.30;;;;;;1601565;73;668;-72
2023/12/30 06:19:23;;;;;;;;;;;17.80;45.20;;;;;;1599113;73;754;-72
2023/12/30 06:21:25;;;;;;;;;;;17.80;45.30;;;;;;1599167;73;1941;-75
2023/12/30 06:23:30;;;;;;;;;;;17.80;45.20;;;;;;1591469;73;773;-73
2023/12/30 06:25:33;;;;;;;;;;;17.80;45.20;;;;;;1598339;73;1196;-72
2023/12/30 06:27:35;;;;;;;;;;;17.80;45.20;;;;;;1587826;73;775;-71
2023/12/30 06:29:37;;;;;;;;;;;17.80;45.30;;;;;;1598112;73;806;-74
2023/12/30 06:31:42;;;;;;;;;;;17.80;45.30;;;;;;1583854;73;803;-70
2023/12/30 06:33:44;;;;;;;;;;;17.80;45.20;;;;;;1595418;73;769;-70
2023/12/30 06:35:46;;;;;;;;;;;17.80;45.20;;;;;;1594793;73;1160;-73
2023/12/30 06:37:48;;;;;;;;;;;17.80;45.20;;;;;;1601037;73;768;-72
2023/12/30 06:39:50;;;;;;;;;;;17.80;45.20;;;;;;1586979;73;770;-73
2023/12/30 06:41:52;;;;;;;;;;;17.80;45.20;;;;;;1586952;73;1917;-72
2023/12/30 06:43:53;;;;;;;;;;;17.80;45.20;;;;;;1599082;73;659;-72
2023/12/30 06:45:55;;;;;;;;;;;17.80;45.30;;;;;;1591414;73;1128;-72
2023/12/30 06:47:57;;;;;;;;;;;17.80;45.30;;;;;;1596041;73;798;-72
2023/12/30 06:49:59;;;;;;;;;;;17.80;45.30;;;;;;1591510;73;807;-72
2023/12/30 06:52:01;;;;;;;;;;;17.80;45.20;;;;;;1585729;73;808;-69
2023/12/30 06:54:03;;;;;;;;;;;17.80;45.30;;;;;;1586672;73;743;-74
2023/12/30 06:56:06;;;;;;;;;;;17.80;45.30;;;;;;1593457;73;1100;-71
2023/12/30 06:58:08;;;;;;;;;;;17.80;45.30;;;;;;1594794;73;781;-70
2023/12/30 07:00:10;;;;;;;;;;;17.80;45.30;;;;;;1598912;73;1921;-70
2023/12/30 07:02:12;;;;;;;;;;;17.80;45.20;;;;;;1597401;73;704;-70
2023/12/30 07:04:14;;;;;;;;;;;17.80;45.20;;;;;;1597073;73;760;-74
2023/12/30 07:06:16;;;;;;;;;;;17.80;45.20;;;;;;1598512;73;1144;-72
2023/12/30 07:08:17;;;;;;;;;;;17.80;45.20;;;;;;1595535;73;783;-70
2023/12/30 07:10:19;;;;;;;;;;;17.80;45.20;;;;;;1598009;73;1422;-71
2023/12/30 07:12:21;;;;;;;;;;;17.80;45.20;;;;;;1591574;73;735;-71
2023/12/30 07:14:23;;;;;;;;;;;17.80;45.20;;;;;;1599381;73;820;-72
2023/12/30 07:16:25;;;;;;;;;;;17.80;45.30;;;;;;1596336;73;1140;-72
2023/12/30 07:18:27;;;;;;;;;;;17.80;45.30;;;;;;1594486;73;751;-72
2023/12/30 07:20:29;;;;;;;;;;;17.80;45.30;;;;;;1595637;73;1924;-74
2023/12/30 07:22:31;;;;;;;;;;;17.80;45.30;;;;;;1588651;73;786;-74
2023/12/30 07:24:32;;;;;;;;;;;17.80;45.20;;;;;;1596648;73;776;-71
2023/12/30 07:26:34;;;;;;;;;;;17.80;45.20;;;;;;1593126;73;728;-73
2023/12/30 07:28:36;;;;;;;;;;;17.80;45.20;;;;;;1589222;73;751;-71
2023/12/30 07:30:38;;;;;;;;;;;17.80;45.30;;;;;;1593023;73;788;-70
2023/12/30 07:32:40;;;;;;;;;;;17.80;45.30;;;;;;1603636;73;790;-71
2023/12/30 07:34:42;;;;;;;;;;;17.80;45.30;;;;;;1596964;73;1136;-69
2023/12/30 07:36:44;;;;;;;;;;;17.80;45.30;;;;;;1598110;73;798;-71
2023/12/30 07:38:46;;;;;;;;;;;17.80;45.30;;;;;;1590496;73;778;-72
2023/12/30 07:40:47;;;;;;;;;;;17.80;45.30;;;;;;1595296;73;1950;-72
2023/12/30 07:42:49;;;;;;;;;;;17.80;45.30;;;;;;1596414;73;770;-70
2023/12/30 07:44:52;;;;;;;;;;;17.80;45.30;;;;;;1589729;73;1187;-71
2023/12/30 07:46:54;;;;;;;;;;;17.80;45.30;;;;;;1601760;73;973;-72
2023/12/30 07:48:56;;;;;;;;;;;17.80;45.30;;;;;;1595622;73;757;-70
2023/12/30 07:50:59;;;;;;;;;;;17.80;45.20;;;;;;1597285;73;783;-72
2023/12/30 07:53:02;;;;;;;;;;;17.80;45.30;;;;;;1578686;73;632;-70
2023/12/30 07:55:04;;;;;;;;;;;17.80;45.30;;;;;;1589646;73;1139;-72
2023/12/30 07:57:06;;;;;;;;;;;17.80;45.30;;;;;;1584892;73;793;-72
2023/12/30 07:59:08;;;;;;;;;;;17.80;45.30;;;;;;1592231;73;688;-69
2023/12/30 08:01:10;;;;;;;;;;;17.80;45.30;;;;;;1592443;73;1928;-70
2023/12/30 08:03:12;;;;;;;;;;;17.80;45.40;;;;;;1593562;73;728;-72
2023/12/30 08:05:14;;;;;;;;;;;17.80;45.30;;;;;;1589330;73;1148;-72
2023/12/30 08:07:16;;;;;;;;;;;17.80;45.30;;;;;;1586394;73;1396;-71
2023/12/30 08:09:18;;;;;;;;;;;17.80;45.30;;;;;;1594108;73;766;-74
2023/12/30 08:11:20;;;;;;;;;;;17.80;45.30;;;;;;1596248;73;758;-70
2023/12/30 08:13:22;;;;;;;;;;;17.80;45.30;;;;;;1594428;73;784;-72
2023/12/30 08:15:23;;;;;;;;;;;17.80;45.40;;;;;;1597389;73;1142;-69
2023/12/30 08:17:25;;;;;;;;;;;17.70;45.30;;;;;;1588743;73;773;-72
2023/12/30 08:19:27;;;;;;;;;;;17.80;45.30;;;;;;1594796;73;773;-72
2023/12/30 08:21:29;;;;;;;;;;;17.80;45.30;;;;;;1592340;73;1933;-72
2023/12/30 08:23:31;;;;;;;;;;;17.80;45.40;;;;;;1589761;73;785;-71
2023/12/30 08:25:33;;;;;;;;;;;17.80;45.30;;;;;;1596397;73;1113;-72
2023/12/30 08:27:36;;;;;;;;;;;17.80;45.30;;;;;;1590504;73;780;-72
2023/12/30 08:29:38;;;;;;;;;;;17.80;45.30;;;;;;1601272;73;775;-72
2023/12/30 08:31:45;;;;;;;;;;;17.80;45.30;;;;;;1588664;73;786;-72
2023/12/30 08:33:43;;;;;;;;;;;17.80;45.30;;;;;;1600690;73;1528;-71
2023/12/30 08:35:48;;;;;;;;;;;17.80;45.30;;;;;;1592572;74;1081;-70
2023/12/30 08:37:49;;;;;;;;;;;17.80;45.30;;;;;;1600675;72;1633;-70
2023/12/30 08:39:51;;;;;;;;;;;17.80;45.30;;;;;;1594437;73;815;-71
2023/12/30 08:41:53;;;;;;;;;;;17.80;45.30;;;;;;1593777;73;1931;-72
2023/12/30 08:43:59;;;;;;;;;;;17.80;45.30;;;;;;1601223;73;761;-72
2023/12/30 08:45:58;;;;;;;;;;;17.80;45.20;;;;;;1586464;73;1220;-70
2023/12/30 08:48:00;;;;;;;;;;;17.80;45.30;;;;;;1591079;73;783;-72
2023/12/30 08:50:03;;;;;;;;;;;17.80;45.30;;;;;;1586517;73;649;-70
2023/12/30 08:52:05;;;;;;;;;;;17.80;45.30;;;;;;1596036;73;800;-72
2023/12/30 08:54:07;;;;;;;;;;;17.80;45.30;;;;;;1593559;73;838;-73
2023/12/30 08:56:09;;;;;;;;;;;17.80;45.30;;;;;;1581010;73;1169;-74
2023/12/30 08:58:11;;;;;;;;;;;17.80;45.30;;;;;;1591330;73;802;-68
2023/12/30 09:00:13;;;;;;;;;;;17.80;45.40;;;;;;1594312;73;766;-72
2023/12/30 09:02:15;;;;;;;;;;;17.80;45.30;;;;;;1589122;73;1943;-71
2023/12/30 09:04:17;;;;;;;;;;;17.80;45.30;;;;;;1600132;73;1442;-72
2023/12/30 09:06:19;;;;;;;;;;;17.80;45.30;;;;;;1593334;73;1246;-72
2023/12/30 09:08:21;;;;;;;;;;;17.80;45.30;;;;;;1594331;73;778;-71
2023/12/30 09:10:23;;;;;;;;;;;17.80;45.30;;;;;;1590465;73;768;-71
2023/12/30 09:12:25;;;;;;;;;;;17.80;45.30;;;;;;1592421;73;768;-72
2023/12/30 09:14:27;;;;;;;;;;;17.80;45.30;;;;;;1588932;73;751;-72
2023/12/30 09:16:29;;;;;;;;;;;17.90;45.40;;;;;;1589741;73;1102;-73
2023/12/30 09:18:31;;;;;;;;;;;17.90;45.40;;;;;;1587694;73;671;-72
2023/12/30 09:20:32;;;;;;;;;;;17.90;45.50;;;;;;1592087;73;642;-70
2023/12/30 09:22:34;;;;;;;;;;;17.80;45.30;;;;;;1595755;73;1953;-73
2023/12/30 09:24:37;;;;;;;;;;;17.80;45.30;;;;;;1594057;73;1190;-69
2023/12/30 09:26:38;;;;;;;;;;;17.80;45.40;;;;;;1594602;73;789;-72
2023/12/30 09:28:40;;;;;;;;;;;17.80;45.30;;;;;;1605769;73;805;-72
2023/12/30 09:30:42;;;;;;;;;;;17.80;45.30;;;;;;1591599;73;789;-69
2023/12/30 09:32:44;;;;;;;;;;;17.80;45.30;;;;;;1597862;73;772;-72
2023/12/30 09:34:46;;;;;;;;;;;17.80;45.30;;;;;;1595741;73;1182;-74
2023/12/30 09:36:48;;;;;;;;;;;17.80;45.30;;;;;;1597696;73;783;-72
2023/12/30 09:38:50;;;;;;;;;;;17.90;45.40;;;;;;1595161;73;763;-72
2023/12/30 09:40:53;;;;;;;;;;;17.80;45.40;;;;;;1590410;73;747;-73
2023/12/30 09:42:54;;;;;;;;;;;17.80;45.30;;;;;;1593836;73;1928;-70
2023/12/30 09:44:56;;;;;;;;;;;17.90;45.40;;;;;;1600075;73;1231;-71
2023/12/30 09:46:58;;;;;;;;;;;17.90;45.50;;;;;;1590510;73;774;-71
2023/12/30 09:49:00;;;;;;;;;;;17.80;45.30;;;;;;1595482;73;800;-72
2023/12/30 09:51:02;;;;;;;;;;;17.90;45.50;;;;;;1600166;73;615;-70
2023/12/30 09:53:04;;;;;;;;;;;17.90;45.40;;;;;;1601708;73;784;-70
2023/12/30 09:55:06;;;;;;;;;;;17.80;45.30;;;;;;1602765;73;1149;-72
2023/12/30 09:57:08;;;;;;;;;;;17.80;45.30;;;;;;1582261;73;757;-70
2023/12/30 09:59:09;;;;;;;;;;;17.80;45.30;;;;;;1598866;73;1399;-69
2023/12/30 10:01:12;;;;;;;;;;;17.80;45.30;;;;;;1593728;73;1934;-71
2023/12/30 10:03:14;;;;;;;;;;;17.90;45.40;;;;;;1585910;73;775;-71
2023/12/30 10:05:16;;;;;;;;;;;17.80;45.30;;;;;;1596672;73;1163;-72
2023/12/30 10:07:18;;;;;;;;;;;17.90;45.50;;;;;;1599143;73;802;-74
2023/12/30 10:09:20;;;;;;;;;;;17.80;45.30;;;;;;1593593;73;733;-71
2023/12/30 10:11:22;;;;;;;;;;;17.80;45.30;;;;;;1592148;73;768;-71
2023/12/30 10:13:27;;;;;;;;;;;17.80;45.30;;;;;;1602057;73;646;-71
2023/12/30 10:15:29;;;;;;;;;;;17.80;45.30;;;;;;1604489;73;1148;-70
2023/12/30 10:17:30;;;;;;;;;;;17.80;45.30;;;;;;1592355;73;770;-72
2023/12/30 10:19:32;;;;;;;;;;;17.90;45.50;;;;;;1592053;73;743;-72
2023/12/30 10:21:35;;;;;;;;;;;17.80;45.30;;;;;;1592604;73;1933;-72
2023/12/30 10:23:37;;;;;;;;;;;17.80;45.30;;;;;;1591736;73;778;-72
2023/12/30 10:25:42;;;;;;;;;;;17.80;45.30;;;;;;1594672;73;1171;-73
2023/12/30 10:27:47;;;;;;;;;;;17.80;45.30;;;;;;1598082;73;850;-72
2023/12/30 10:29:50;;;;;;;;;;;17.90;45.50;;;;;;1592366;73;748;-69
2023/12/30 10:32:00;;;;;;;;;;;17.90;45.50;;;;;;1600291;73;1097;-72
2023/12/30 10:34:03;;;;;;;;;;;17.90;45.40;;;;;;1600228;73;771;-70
2023/12/30 10:36:05;;;;;;;;;;;17.80;45.20;;;;;;1598153;73;1131;-72
2023/12/30 10:38:10;;;;;;;;;;;17.90;45.40;;;;;;1593680;73;773;-72
2023/12/30 10:40:12;;;;;;;;;;;17.90;45.40;;;;;;1597878;73;768;-71
2023/12/30 10:42:14;;;;;;;;;;;17.90;45.40;;;;;;1595678;73;1945;-69
2023/12/30 10:44:16;;;;;;;;;;;17.90;45.40;;;;;;1593265;73;761;-70
2023/12/30 10:46:18;;;;;;;;;;;17.90;45.40;;;;;;1593793;73;1187;-72
2023/12/30 10:48:20;;;;;;;;;;;17.90;45.40;;;;;;1592828;73;1114;-73
2023/12/30 10:50:22;;;;;;;;;;;17.90;45.40;;;;;;1599815;73;743;-71
2023/12/30 10:52:26;;;;;;;;;;;17.90;45.40;;;;;;1602758;73;906;-72
2023/12/30 10:54:29;;;;;;;;;;;17.90;45.40;;;;;;1600364;73;637;-71
2023/12/30 10:56:32;;;;;;;;;;;17.90;45.40;;;;;;1602564;73;1669;-72
2023/12/30 10:58:37;;;;;;;;;;;17.90;45.40;;;;;;1599478;73;761;-72
2023/12/30 11:00:39;;;;;;;;;;;17.90;45.40;;;;;;1595572;73;819;-72
2023/12/30 11:02:41;;;;;;;;;;;17.90;45.30;;;;;;1606999;73;1942;-72
2023/12/30 11:04:43;;;;;;;;;;;17.90;45.40;;;;;;1597300;73;1130;-72
2023/12/30 11:06:52;;;;;;;;;;;17.90;45.40;;;;;;1594869;73;759;-73
2023/12/30 11:08:56;;;;;;;;;;;17.90;45.40;;;;;;1600100;73;775;-72
2023/12/30 11:10:59;;;;;;;;;;;17.90;45.30;;;;;;1596023;73;959;-72
2023/12/30 11:13:01;;;;;;;;;;;17.90;45.30;;;;;;1597896;73;772;-70
2023/12/30 11:15:03;;;;;;;;;;;17.90;45.30;;;;;;1591113;74;1216;-71
2023/12/30 11:17:06;;;;;;;;;;;18.00;45.40;;;;;;1594379;73;774;-69
2023/12/30 11:19:08;;;;;;;;;;;17.90;45.40;;;;;;1608269;73;685;-69
2023/12/30 11:21:10;;;;;;;;;;;17.90;45.30;;;;;;1592369;73;777;-74
2023/12/30 11:23:11;;;;;;;;;;;17.90;45.30;;;;;;1601080;73;1936;-70
2023/12/30 11:25:14;;;;;;;;;;;18.00;45.40;;;;;;1591164;73;1166;-72
2023/12/30 11:27:16;;;;;;;;;;;18.00;45.30;;;;;;1596641;73;725;-70
2023/12/30 11:29:19;;;;;;;;;;;17.90;45.30;;;;;;1593157;73;631;-74
2023/12/30 11:31:22;;;;;;;;;;;17.90;45.30;;;;;;1592077;73;790;-73
2023/12/30 11:33:24;;;;;;;;;;;17.90;45.30;;;;;;1591625;73;1727;-71
2023/12/30 11:35:27;;;;;;;;;;;17.80;45.20;;;;;;1601041;73;1166;-72
2023/12/30 11:37:28;;;;;;;;;;;17.90;45.30;;;;;;1599415;73;751;-72
2023/12/30 11:39:38;;;;;;;;;;;17.90;45.30;;;;;;1582760;73;784;-72
2023/12/30 11:41:34;;;;;;;;;;;18.00;45.30;;;;;;1590418;73;1512;-72
2023/12/30 11:43:36;;;;;;;;;;;17.90;45.20;;;;;;1599965;73;1933;-72
2023/12/30 11:45:38;;;;;;;;;;;17.90;45.30;;;;;;1602573;73;1231;-72
2023/12/30 11:47:40;;;;;;;;;;;17.90;45.30;;;;;;1583387;73;808;-72
2023/12/30 11:49:42;;;;;;;;;;;17.90;45.20;;;;;;1592256;73;817;-71
2023/12/30 11:51:44;;;;;;;;;;;17.90;45.20;;;;;;1593195;73;1275;-71
2023/12/30 11:53:46;;;;;;;;;;;18.00;45.20;;;;;;1591713;73;644;-71
2023/12/30 11:55:47;;;;;;;;;;;17.90;45.30;;;;;;1587718;73;1137;-72
2023/12/30 11:57:49;;;;;;;;;;;18.00;45.20;;;;;;1592426;73;793;-72
2023/12/30 11:59:51;;;;;;;;;;;17.90;45.20;;;;;;1595446;73;786;-72
2023/12/30 12:01:53;;;;;;;;;;;17.90;45.20;;;;;;1599165;73;762;-72
2023/12/30 12:03:56;;;;;;;;;;;17.90;45.20;;;;;;1593415;73;767;-72
2023/12/30 12:05:58;;;;;;;;;;;17.90;45.20;;;;;;1601624;73;1170;-72
2023/12/30 12:08:00;;;;;;;;;;;17.90;45.20;;;;;;1589531;73;793;-72